HAZ2608 ZUCK-ZSHC
Flight info
| Callsign | HAZ2608 |
|---|---|
| Flight time | N/A |
| Altitude | 29100 |
| Route | OLNER1Z OLNER B213 WHA R343 UPLEL W95 SAPIN A470 IGRAT IGRAT91 |
| Aircraft | A320/M-SDE3FGHIRWY/LB1 |
Departure
| Time | N/A |
|---|---|
| Airport | Chongqing Jiangbei International Airport (ZUCK) |
Arrival
| Time | 2026-05-04 09:40 |
|---|---|
| Airport | Hangzhou Xiaoshan International Airport (ZSHC) |
| Time | Latitude | Longitude | Altitude | Speed | Heading |
|---|---|---|---|---|---|
| 2026-05-04 08:06 | 30.13605 | 108.63292 | 29156 ft | 526 kts | 69° |
| 2026-05-04 08:08 | 30.22956 | 108.95009 | 29145 ft | 521 kts | 70° |
| 2026-05-04 08:11 | 30.28146 | 109.16539 | 29116 ft | 521 kts | 73° |
| 2026-05-04 08:11 | 30.31315 | 109.29447 | 29119 ft | 522 kts | 72° |
| 2026-05-04 08:12 | 30.33298 | 109.37516 | 29152 ft | 521 kts | 72° |
| 2026-05-04 08:12 | 30.35263 | 109.45582 | 29155 ft | 520 kts | 72° |
| 2026-05-04 08:13 | 30.37209 | 109.53635 | 29146 ft | 519 kts | 73° |
| 2026-05-04 08:13 | 30.39059 | 109.61705 | 29141 ft | 519 kts | 78° |
| 2026-05-04 08:14 | 30.40260 | 109.69896 | 29120 ft | 519 kts | 79° |
| 2026-05-04 08:16 | 30.45099 | 110.02883 | 29100 ft | 520 kts | 80° |
| 2026-05-04 08:16 | 30.46291 | 110.11154 | 29106 ft | 520 kts | 80° |
| 2026-05-04 08:17 | 30.47476 | 110.19426 | 29131 ft | 520 kts | 80° |
| 2026-05-04 08:17 | 30.48464 | 110.26290 | 29132 ft | 519 kts | 80° |
| 2026-05-04 08:19 | 30.53117 | 110.59222 | 29095 ft | 517 kts | 81° |
| 2026-05-04 08:20 | 30.54263 | 110.67453 | 29095 ft | 517 kts | 81° |
| 2026-05-04 08:20 | 30.55419 | 110.75681 | 29086 ft | 517 kts | 81° |
| 2026-05-04 08:21 | 30.56569 | 110.83908 | 29074 ft | 517 kts | 81° |
| 2026-05-04 08:21 | 30.57707 | 110.92141 | 29076 ft | 516 kts | 81° |
| 2026-05-04 08:22 | 30.58830 | 111.00384 | 29070 ft | 518 kts | 81° |
| 2026-05-04 08:24 | 30.62777 | 111.29421 | 29097 ft | 537 kts | 81° |
| 2026-05-04 08:24 | 30.63355 | 111.33717 | 29096 ft | 540 kts | 81° |
| 2026-05-04 08:24 | 30.64511 | 111.42345 | 29096 ft | 541 kts | 81° |
| 2026-05-04 08:25 | 30.65402 | 111.51000 | 29101 ft | 541 kts | 88° |
| 2026-05-04 08:25 | 30.65848 | 111.59725 | 29099 ft | 541 kts | 88° |
| 2026-05-04 08:27 | 30.67617 | 111.94575 | 29084 ft | 540 kts | 88° |
| 2026-05-04 08:28 | 30.68103 | 112.03276 | 29115 ft | 540 kts | 86° |
| 2026-05-04 08:28 | 30.68731 | 112.11975 | 29093 ft | 541 kts | 86° |
| 2026-05-04 08:29 | 30.69382 | 112.20682 | 29074 ft | 542 kts | 86° |
| 2026-05-04 08:31 | 30.71680 | 112.55606 | 29086 ft | 544 kts | 87° |
| 2026-05-04 08:33 | 30.73904 | 112.90732 | 29111 ft | 544 kts | 87° |
| 2026-05-04 08:35 | 30.75762 | 113.25852 | 29102 ft | 545 kts | 90° |
| 2026-05-04 08:35 | 30.75898 | 113.34680 | 29106 ft | 547 kts | 91° |
| 2026-05-04 08:37 | 30.76624 | 113.65646 | 29117 ft | 548 kts | 90° |
| 2026-05-04 08:38 | 30.76819 | 113.74503 | 29117 ft | 548 kts | 90° |
| 2026-05-04 08:38 | 30.77008 | 113.83353 | 29114 ft | 547 kts | 90° |
| 2026-05-04 08:40 | 30.78255 | 114.18745 | 29117 ft | 550 kts | 80° |
| 2026-05-04 08:41 | 30.80499 | 114.27234 | 29114 ft | 550 kts | 68° |
| 2026-05-04 08:41 | 30.83249 | 114.35561 | 29110 ft | 553 kts | 68° |
| 2026-05-04 08:42 | 30.85918 | 114.43955 | 29117 ft | 554 kts | 69° |
| 2026-05-04 08:42 | 30.88593 | 114.52375 | 29127 ft | 554 kts | 68° |
| 2026-05-04 08:43 | 30.91319 | 114.60775 | 29142 ft | 555 kts | 68° |
| 2026-05-04 08:43 | 30.94058 | 114.69182 | 29146 ft | 555 kts | 68° |
| 2026-05-04 08:44 | 30.96789 | 114.77610 | 29149 ft | 557 kts | 68° |
| 2026-05-04 08:46 | 31.07657 | 115.11510 | 29147 ft | 559 kts | 68° |
| 2026-05-04 08:46 | 31.10365 | 115.20005 | 29169 ft | 559 kts | 68° |
| 2026-05-04 08:47 | 31.13059 | 115.28505 | 29172 ft | 558 kts | 68° |
| 2026-05-04 08:47 | 31.15776 | 115.36992 | 29152 ft | 558 kts | 68° |
| 2026-05-04 08:48 | 31.18539 | 115.45464 | 29133 ft | 559 kts | 68° |
| 2026-05-04 08:48 | 31.21291 | 115.53954 | 29138 ft | 559 kts | 68° |
| 2026-05-04 08:49 | 31.24024 | 115.62452 | 29130 ft | 559 kts | 68° |
| 2026-05-04 08:50 | 31.33577 | 115.92336 | 29156 ft | 563 kts | 68° |
| 2026-05-04 08:51 | 31.36361 | 116.00877 | 29148 ft | 560 kts | 67° |
| 2026-05-04 08:51 | 31.39158 | 116.09377 | 29144 ft | 559 kts | 67° |
| 2026-05-04 08:52 | 31.41936 | 116.17888 | 29155 ft | 559 kts | 67° |
| 2026-05-04 08:52 | 31.44688 | 116.26396 | 29115 ft | 559 kts | 67° |
| 2026-05-04 08:54 | 31.55687 | 116.60641 | 29132 ft | 562 kts | 67° |
| 2026-05-04 08:55 | 31.58424 | 116.69216 | 29155 ft | 560 kts | 67° |
| 2026-05-04 08:55 | 31.61142 | 116.77762 | 29144 ft | 558 kts | 67° |
| 2026-05-04 08:57 | 31.70597 | 117.07689 | 29434 ft | 553 kts | 68° |
| 2026-05-04 09:01 | 31.74713 | 117.70358 | 31137 ft | 568 kts | 96° |
| 2026-05-04 09:01 | 31.74061 | 117.79596 | 31140 ft | 568 kts | 97° |
| 2026-05-04 09:02 | 31.73417 | 117.88700 | 31144 ft | 550 kts | 97° |
| 2026-05-04 09:02 | 31.72775 | 117.97612 | 31170 ft | 544 kts | 96° |
| 2026-05-04 09:02 | 31.72447 | 118.01986 | 31134 ft | 533 kts | 96° |
| 2026-05-04 09:03 | 31.72231 | 118.04837 | 31145 ft | 530 kts | 96° |
| 2026-05-04 09:03 | 31.71580 | 118.13482 | 31144 ft | 535 kts | 96° |
| 2026-05-04 09:04 | 31.70966 | 118.22220 | 31143 ft | 537 kts | 96° |
| 2026-05-04 09:04 | 31.70377 | 118.30965 | 31141 ft | 537 kts | 96° |
| 2026-05-04 09:05 | 31.69771 | 118.39707 | 31138 ft | 539 kts | 97° |
| 2026-05-04 09:05 | 31.69132 | 118.48533 | 31145 ft | 543 kts | 97° |
| 2026-05-04 09:06 | 31.68493 | 118.57372 | 31149 ft | 544 kts | 97° |
| 2026-05-04 09:07 | 31.66212 | 118.88396 | 30153 ft | 552 kts | 97° |
| 2026-05-04 09:08 | 31.65581 | 118.92901 | 28558 ft | 548 kts | 109° |
| 2026-05-04 09:08 | 31.64220 | 118.96961 | 27751 ft | 519 kts | 123° |
| 2026-05-04 09:08 | 31.62407 | 119.00369 | 27596 ft | 480 kts | 133° |
| 2026-05-04 09:08 | 31.60224 | 119.03266 | 27488 ft | 475 kts | 144° |
| 2026-05-04 09:09 | 31.57660 | 119.05711 | 27395 ft | 476 kts | 150° |
| 2026-05-04 09:09 | 31.55014 | 119.08042 | 27291 ft | 477 kts | 150° |
| 2026-05-04 09:09 | 31.52363 | 119.10363 | 27075 ft | 470 kts | 150° |
| 2026-05-04 09:09 | 31.49758 | 119.12641 | 26821 ft | 466 kts | 150° |
| 2026-05-04 09:10 | 31.47166 | 119.14901 | 26574 ft | 464 kts | 150° |
| 2026-05-04 09:10 | 31.44576 | 119.17156 | 26327 ft | 464 kts | 150° |
| 2026-05-04 09:10 | 31.41978 | 119.19414 | 26055 ft | 464 kts | 150° |
| 2026-05-04 09:10 | 31.39390 | 119.21660 | 25815 ft | 464 kts | 150° |
| 2026-05-04 09:11 | 31.36802 | 119.23909 | 25586 ft | 464 kts | 149° |
| 2026-05-04 09:11 | 31.34211 | 119.26163 | 25327 ft | 465 kts | 150° |
| 2026-05-04 09:11 | 31.31612 | 119.28426 | 25090 ft | 466 kts | 149° |
| 2026-05-04 09:11 | 31.29015 | 119.30692 | 24857 ft | 467 kts | 149° |
| 2026-05-04 09:12 | 31.26407 | 119.32965 | 24628 ft | 468 kts | 149° |
| 2026-05-04 09:12 | 31.23798 | 119.35239 | 24395 ft | 468 kts | 149° |
| 2026-05-04 09:14 | 31.05527 | 119.51199 | 22646 ft | 467 kts | 149° |
| 2026-05-04 09:14 | 31.02933 | 119.53465 | 22383 ft | 465 kts | 149° |
| 2026-05-04 09:14 | 31.00353 | 119.55715 | 22027 ft | 464 kts | 149° |
| 2026-05-04 09:14 | 30.97692 | 119.58018 | 21013 ft | 482 kts | 148° |
| 2026-05-04 09:15 | 30.95008 | 119.60339 | 20112 ft | 480 kts | 147° |
| 2026-05-04 09:15 | 30.92338 | 119.62656 | 19389 ft | 474 kts | 146° |
| 2026-05-04 09:15 | 30.89779 | 119.64891 | 19157 ft | 443 kts | 146° |
| 2026-05-04 09:15 | 30.87392 | 119.66983 | 18682 ft | 418 kts | 146° |
| 2026-05-04 09:17 | 30.71148 | 119.83362 | 12109 ft | 357 kts | 116° |
| 2026-05-04 09:18 | 30.70194 | 119.86008 | 11510 ft | 345 kts | 106° |
| 2026-05-04 09:18 | 30.69495 | 119.88626 | 11396 ft | 345 kts | 105° |
| 2026-05-04 09:18 | 30.68784 | 119.91236 | 11220 ft | 330 kts | 106° |
| 2026-05-04 09:18 | 30.68099 | 119.93726 | 10779 ft | 318 kts | 106° |
| 2026-05-04 09:19 | 30.67400 | 119.96151 | 10541 ft | 317 kts | 111° |
| 2026-05-04 09:19 | 30.66389 | 119.98422 | 10308 ft | 316 kts | 122° |
| 2026-05-04 09:19 | 30.65026 | 120.00425 | 10066 ft | 317 kts | 134° |
| 2026-05-04 09:19 | 30.63370 | 120.02088 | 9871 ft | 314 kts | 144° |
| 2026-05-04 09:20 | 30.61590 | 120.03565 | 9751 ft | 314 kts | 144° |
| 2026-05-04 09:20 | 30.59825 | 120.05040 | 9612 ft | 313 kts | 144° |
| 2026-05-04 09:20 | 30.58055 | 120.06527 | 9483 ft | 312 kts | 144° |
| 2026-05-04 09:20 | 30.56295 | 120.08008 | 9353 ft | 311 kts | 144° |
| 2026-05-04 09:21 | 30.54542 | 120.09481 | 9223 ft | 310 kts | 144° |
| 2026-05-04 09:21 | 30.52793 | 120.10945 | 8931 ft | 308 kts | 144° |
| 2026-05-04 09:21 | 30.51123 | 120.12338 | 8717 ft | 291 kts | 144° |
| 2026-05-04 09:21 | 30.49481 | 120.13706 | 8210 ft | 284 kts | 144° |
| 2026-05-04 09:22 | 30.47852 | 120.14898 | 7817 ft | 276 kts | 155° |
| 2026-05-04 09:22 | 30.46161 | 120.15750 | 7674 ft | 255 kts | 157° |
| 2026-05-04 09:22 | 30.44588 | 120.16541 | 7501 ft | 239 kts | 156° |
| 2026-05-04 09:22 | 30.43097 | 120.17295 | 7302 ft | 231 kts | 156° |
| 2026-05-04 09:23 | 30.41664 | 120.18016 | 7179 ft | 218 kts | 156° |
| 2026-05-04 09:23 | 30.40294 | 120.18703 | 7056 ft | 213 kts | 156° |
| 2026-05-04 09:23 | 30.38935 | 120.19384 | 6942 ft | 212 kts | 156° |
| 2026-05-04 09:23 | 30.37588 | 120.20062 | 6821 ft | 211 kts | 156° |
| 2026-05-04 09:25 | 30.28388 | 120.25265 | 6897 ft | 209 kts | 132° |
| 2026-05-04 09:25 | 30.27549 | 120.26614 | 6899 ft | 207 kts | 112° |
| 2026-05-04 09:26 | 30.27142 | 120.28189 | 6877 ft | 204 kts | 93° |
| 2026-05-04 09:26 | 30.27196 | 120.29810 | 6801 ft | 200 kts | 75° |
| 2026-05-04 09:26 | 30.27683 | 120.31294 | 6716 ft | 197 kts | 59° |
| 2026-05-04 09:26 | 30.28319 | 120.32699 | 6651 ft | 197 kts | 60° |
| 2026-05-04 09:27 | 30.28948 | 120.34111 | 6578 ft | 197 kts | 60° |
| 2026-05-04 09:27 | 30.29569 | 120.35517 | 6509 ft | 196 kts | 60° |
| 2026-05-04 09:27 | 30.30190 | 120.36923 | 6420 ft | 196 kts | 60° |
| 2026-05-04 09:27 | 30.30812 | 120.38330 | 6367 ft | 196 kts | 60° |
| 2026-05-04 09:28 | 30.31433 | 120.39735 | 6294 ft | 196 kts | 60° |
| 2026-05-04 09:28 | 30.32054 | 120.41138 | 6224 ft | 196 kts | 60° |
| 2026-05-04 09:28 | 30.32673 | 120.42538 | 6152 ft | 196 kts | 60° |
| 2026-05-04 09:28 | 30.33293 | 120.43939 | 6084 ft | 196 kts | 60° |
| 2026-05-04 09:29 | 30.33914 | 120.45338 | 6016 ft | 195 kts | 60° |
| 2026-05-04 09:29 | 30.34534 | 120.46739 | 5943 ft | 195 kts | 61° |
| 2026-05-04 09:29 | 30.35150 | 120.48136 | 5872 ft | 195 kts | 61° |
| 2026-05-04 09:29 | 30.35768 | 120.49535 | 5792 ft | 195 kts | 61° |
| 2026-05-04 09:30 | 30.36386 | 120.50932 | 5711 ft | 195 kts | 61° |
| 2026-05-04 09:30 | 30.36997 | 120.52313 | 5624 ft | 197 kts | 61° |
| 2026-05-04 09:30 | 30.37677 | 120.53848 | 5568 ft | 222 kts | 60° |
| 2026-05-04 09:30 | 30.38383 | 120.55445 | 5457 ft | 227 kts | 62° |
| 2026-05-04 09:31 | 30.39107 | 120.57090 | 5357 ft | 233 kts | 61° |
| 2026-05-04 09:31 | 30.39828 | 120.58733 | 5262 ft | 224 kts | 61° |
| 2026-05-04 09:31 | 30.40525 | 120.60321 | 5177 ft | 214 kts | 60° |
| 2026-05-04 09:31 | 30.41178 | 120.61808 | 5091 ft | 206 kts | 61° |
| 2026-05-04 09:32 | 30.41716 | 120.63313 | 5001 ft | 202 kts | 80° |
| 2026-05-04 09:32 | 30.41603 | 120.64911 | 4932 ft | 202 kts | 111° |
| 2026-05-04 09:34 | 30.34368 | 120.64684 | 3548 ft | 173 kts | 242° |
| 2026-05-04 09:34 | 30.33833 | 120.63479 | 3409 ft | 164 kts | 240° |
| 2026-05-04 09:34 | 30.33336 | 120.62355 | 3336 ft | 146 kts | 240° |
| 2026-05-04 09:34 | 30.32890 | 120.61345 | 3211 ft | 137 kts | 240° |
| 2026-05-04 09:35 | 30.32459 | 120.60370 | 3055 ft | 136 kts | 240° |
| 2026-05-04 09:35 | 30.32029 | 120.59396 | 2886 ft | 135 kts | 240° |
| 2026-05-04 09:35 | 30.31603 | 120.58431 | 2719 ft | 134 kts | 241° |
| 2026-05-04 09:35 | 30.31182 | 120.57476 | 2539 ft | 134 kts | 240° |
| 2026-05-04 09:37 | 30.28227 | 120.50790 | 1311 ft | 135 kts | 240° |
| 2026-05-04 09:37 | 30.27799 | 120.49821 | 1136 ft | 134 kts | 240° |
| 2026-05-04 09:38 | 30.27376 | 120.48865 | 961 ft | 133 kts | 240° |
| 2026-05-04 09:38 | 30.26953 | 120.47909 | 798 ft | 135 kts | 240° |
| 2026-05-04 09:38 | 30.26527 | 120.46945 | 629 ft | 134 kts | 242° |
| 2026-05-04 09:38 | 30.26102 | 120.45985 | 457 ft | 134 kts | 242° |
| 2026-05-04 09:39 | 30.25676 | 120.45022 | 275 ft | 134 kts | 242° |
| 2026-05-04 09:39 | 30.25254 | 120.44067 | 121 ft | 133 kts | 243° |
| 2026-05-04 09:39 | 30.24835 | 120.43128 | 35 ft | 122 kts | 243° |
| 2026-05-04 09:39 | 30.24523 | 120.42419 | 30 ft | 60 kts | 242° |
| 2026-05-04 09:40 | 30.24376 | 120.42090 | 32 ft | 43 kts | 243° |
| 2026-05-04 09:40 | 30.24216 | 120.41860 | 32 ft | 35 kts | 217° |
| 2026-05-04 09:40 | 30.24050 | 120.41731 | 31 ft | 23 kts | 211° |
| 2026-05-04 09:40 | 30.23986 | 120.41709 | 32 ft | 0 kts | 181° |
| 2026-05-04 09:41 | 30.23969 | 120.41710 | 32 ft | 6 kts | 172° |
| 2026-05-04 09:42 | 30.24325 | 120.42631 | 32 ft | 18 kts | 63° |
| 2026-05-04 09:43 | 30.24377 | 120.42751 | 32 ft | 9 kts | 72° |
| 2026-05-04 09:43 | 30.24350 | 120.42799 | 32 ft | 7 kts | 148° |
| 2026-05-04 09:43 | 30.24296 | 120.42831 | 32 ft | 12 kts | 154° |
| 2026-05-04 09:43 | 30.24219 | 120.42875 | 32 ft | 9 kts | 153° |
| 2026-05-04 09:44 | 30.24183 | 120.42914 | 32 ft | 6 kts | 86° |
| 2026-05-04 09:44 | 30.24202 | 120.42951 | 32 ft | 2 kts | 63° |
| 2026-05-04 09:44 | 30.24207 | 120.42962 | 32 ft | 0 kts | 62° |